Terminal Aerodrome Forecast
Issued by NWS Melbourne, FL

Home | Current Version | Previous Version | Text Only | Print | Product List | Glossary On
Versions: 1 2 3 4 5 6 7 8 9 10 11 12 13 14 15
000
FTUS42 KMLB 302332
TAFVRB
TAF
KVRB 302332Z 3100/3124 10009KT P6SM FEW025
     FM310100 10008KT P6SM SCT030
     FM310600 00000KT P6SM VCSH SCT030
     FM311400 11006KT P6SM VCSH FEW015 SCT025 BKN080
     FM311700 10012KT P6SM SCT025=

USA.gov is the U.S. government's official web portal to all federal, state and local government web resources and services.